SBCR/CMG METAR and TAF weather

Enter ICAO airport designator
Station Type Date Time Source
SBCR METAR 2018/12/14 23:00 UTC NOAA

SBCR 142300Z 02004KT CAVOK 30/23 Q1010


Station Type Date Time Source
SBCR Decoded METAR 2018/12/14 23:00 UTC NOAA

Corumba, Brazil (SBCR) 19-05S 057-30W
Dec 14, 2018 - 06:00 PM EST / 2018.12.14 2300 UTC
Wind: from the NNE (020 degrees) at 5 MPH (4 KT):0
Visibility: greater than 7 mile(s):0
Temperature: 86 F (30 C)
Heat index: 93.4 F (34.1 C):1
Dew Point: 73 F (23 C)
Relative Humidity: 66%
Pressure (altimeter): 29.83 in. Hg (1010 hPa)
ob: SBCR 142300Z 02004KT CAVOK 30/23 Q1010
cycle: 23

Station Type Date Time Source
SBCR TAF 2018/12/14 18:39 UTC NOAA

TAF SBCR 141515Z 1418/1518 35009KT 9999 SCT040 TX35/1418Z TN25/1508Z
BECMG 1420/1422 07005KT CAVOK
RMK PDV


Example: see airport list